Time;durP1;ratioP1;P1;durP2;ratioP2;P2;SDS_P1;SDS_P2;PMS_P1;PMS_P2;Temp;Humidity;BMP_temperature;BMP_pressure;BME280_temperature;BME280_humidity;BME280_pressure;Samples;Min_cycle;Max_cycle;Signal;HPM_P1;HPM_P2
2022/03/02 00:00:49;;;;;;;;;;;0.50;99.90;;;;;;5082125;28;19931;-68
2022/03/02 00:03:16;;;;;;;;;;;0.50;99.90;;;;;;5080874;28;19928;-68
2022/03/02 00:05:43;;;;;;;;;;;0.60;99.90;;;;;;5087112;28;19947;-68
2022/03/02 00:08:10;;;;;;;;;;;0.60;99.90;;;;;;5085294;28;19936;-69
2022/03/02 00:10:37;;;;;;;;;;;0.50;99.90;;;;;;5084152;28;20035;-69
2022/03/02 00:13:03;;;;;;;;;;;0.50;99.90;;;;;;5078611;28;19931;-69
2022/03/02 00:15:30;;;;;;;;;;;0.50;99.90;;;;;;5070541;28;20331;-69
2022/03/02 00:17:57;;;;;;;;;;;0.40;99.90;;;;;;5085554;28;19928;-68
2022/03/02 00:20:24;;;;;;;;;;;0.30;99.90;;;;;;5077098;28;19964;-69
2022/03/02 00:22:52;;;;;;;;;;;0.20;99.90;;;;;;5074626;28;20003;-69
2022/03/02 00:25:22;;;;;;;;;;;0.10;99.90;;;;;;5076278;28;20016;-68
2022/03/02 00:27:49;;;;;;;;;;;0.10;99.90;;;;;;5074419;28;20355;-69
2022/03/02 00:30:15;;;;;;;;;;;0.00;99.90;;;;;;5092232;28;19974;-69
2022/03/02 00:32:45;;;;;;;;;;;-0.10;99.90;;;;;;5090228;28;19974;-69
2022/03/02 00:35:11;;;;;;;;;;;-0.20;99.90;;;;;;5081003;28;19986;-68
2022/03/02 00:37:38;;;;;;;;;;;-0.20;99.90;;;;;;5078983;28;20007;-69
2022/03/02 00:40:07;;;;;;;;;;;-0.30;99.90;;;;;;5092136;28;19932;-68
2022/03/02 00:42:34;;;;;;;;;;;-0.30;99.90;;;;;;5077401;28;20015;-69
2022/03/02 00:45:03;;;;;;;;;;;-0.30;99.90;;;;;;5076202;28;20405;-68
2022/03/02 00:47:30;;;;;;;;;;;-0.30;99.90;;;;;;5091678;28;19931;-69
2022/03/02 00:49:57;;;;;;;;;;;-0.40;99.90;;;;;;5091248;28;19932;-68
2022/03/02 00:52:24;;;;;;;;;;;-0.30;99.90;;;;;;5084496;28;19974;-69
2022/03/02 00:54:51;;;;;;;;;;;-0.30;99.90;;;;;;5081043;28;19925;-69
2022/03/02 00:57:17;;;;;;;;;;;-0.30;99.90;;;;;;5079124;28;20018;-69
2022/03/02 00:59:44;;;;;;;;;;;-0.40;99.90;;;;;;5081504;28;19929;-68
2022/03/02 01:02:13;;;;;;;;;;;-0.50;99.90;;;;;;5073389;28;19924;-68
2022/03/02 01:04:40;;;;;;;;;;;-0.60;99.90;;;;;;5083403;28;19935;-69
2022/03/02 01:07:07;;;;;;;;;;;-0.60;99.90;;;;;;5076263;28;19928;-69
2022/03/02 01:09:37;;;;;;;;;;;-0.60;99.90;;;;;;5073282;28;19974;-69
2022/03/02 01:12:04;;;;;;;;;;;-0.60;99.90;;;;;;5087804;28;19934;-68
2022/03/02 01:14:30;;;;;;;;;;;-0.60;99.90;;;;;;5073646;28;19925;-68
2022/03/02 01:16:57;;;;;;;;;;;-0.60;99.90;;;;;;5088235;28;19959;-68
2022/03/02 01:19:24;;;;;;;;;;;-0.60;99.90;;;;;;5084690;28;19960;-69
2022/03/02 01:21:55;;;;;;;;;;;-0.60;99.90;;;;;;5074125;28;19928;-69
2022/03/02 01:24:22;;;;;;;;;;;-0.70;99.90;;;;;;5082017;28;19924;-68
2022/03/02 01:26:49;;;;;;;;;;;-0.70;99.90;;;;;;5074987;28;19964;-68
2022/03/02 01:29:16;;;;;;;;;;;-0.70;99.90;;;;;;5078821;28;19931;-69
2022/03/02 01:31:42;;;;;;;;;;;-0.60;99.90;;;;;;5071097;28;19931;-68
2022/03/02 01:34:12;;;;;;;;;;;-0.60;99.90;;;;;;5071278;28;20516;-68
2022/03/02 01:36:38;;;;;;;;;;;-0.60;99.90;;;;;;5077566;28;19964;-69
2022/03/02 01:39:05;;;;;;;;;;;-0.50;99.90;;;;;;5080762;28;19928;-68
2022/03/02 01:41:32;;;;;;;;;;;-0.50;99.90;;;;;;5087245;28;20019;-68
2022/03/02 01:44:01;;;;;;;;;;;-0.50;99.90;;;;;;5081919;28;20018;-68
2022/03/02 01:46:30;;;;;;;;;;;-0.50;99.90;;;;;;5077518;28;19963;-69
2022/03/02 01:48:57;;;;;;;;;;;-0.60;99.90;;;;;;5081364;28;19924;-69
2022/03/02 01:51:26;;;;;;;;;;;-0.70;99.90;;;;;;5086261;28;19938;-69
2022/03/02 01:53:52;;;;;;;;;;;-0.80;99.90;;;;;;5082461;28;19970;-69
2022/03/02 01:56:19;;;;;;;;;;;-0.80;99.90;;;;;;5085047;28;19925;-69
2022/03/02 01:58:47;;;;;;;;;;;-0.90;99.90;;;;;;5087130;28;20002;-68
2022/03/02 02:01:14;;;;;;;;;;;-1.00;99.90;;;;;;5078009;28;19932;-69
2022/03/02 02:03:42;;;;;;;;;;;-1.00;99.90;;;;;;5088695;28;19925;-68
2022/03/02 02:06:09;;;;;;;;;;;-1.10;99.90;;;;;;5083001;28;19979;-69
2022/03/02 02:08:36;;;;;;;;;;;-1.10;99.90;;;;;;5089359;28;19931;-69
2022/03/02 02:11:03;;;;;;;;;;;-1.20;99.90;;;;;;5075289;28;19925;-69
2022/03/02 02:13:32;;;;;;;;;;;-1.30;99.90;;;;;;5089946;28;19967;-69
2022/03/02 02:15:58;;;;;;;;;;;-1.30;99.90;;;;;;5082284;28;19928;-69
2022/03/02 02:18:26;;;;;;;;;;;-1.30;99.90;;;;;;5073583;28;19928;-68
2022/03/02 02:20:52;;;;;;;;;;;-1.20;99.90;;;;;;5085061;28;20295;-69
2022/03/02 02:23:22;;;;;;;;;;;-1.10;99.90;;;;;;5085686;28;20007;-69
2022/03/02 02:25:48;;;;;;;;;;;-0.90;99.90;;;;;;5074247;28;20355;-70
2022/03/02 02:28:18;;;;;;;;;;;-0.90;99.90;;;;;;5070452;28;19924;-69
2022/03/02 02:30:46;;;;;;;;;;;-0.90;99.90;;;;;;5085249;28;19946;-69
2022/03/02 02:33:21;;;;;;;;;;;-0.80;99.90;;;;;;5071498;28;19928;-69
2022/03/02 02:35:47;;;;;;;;;;;-0.70;99.90;;;;;;5085541;28;19928;-69
2022/03/02 02:38:15;;;;;;;;;;;-0.70;99.90;;;;;;5073905;28;20007;-69
2022/03/02 02:40:42;;;;;;;;;;;-0.60;99.90;;;;;;5077879;28;19925;-69
2022/03/02 02:43:09;;;;;;;;;;;-0.60;99.90;;;;;;5085490;28;19928;-69
2022/03/02 02:45:36;;;;;;;;;;;-0.60;99.90;;;;;;5070775;28;20380;-69
2022/03/02 02:48:04;;;;;;;;;;;-0.70;99.90;;;;;;5084547;28;19995;-69
2022/03/02 02:50:32;;;;;;;;;;;-0.70;99.90;;;;;;5071409;28;20011;-69
2022/03/02 02:53:00;;;;;;;;;;;-0.70;99.90;;;;;;5071094;28;19928;-69
2022/03/02 02:55:28;;;;;;;;;;;-0.70;99.90;;;;;;5082633;28;19959;-69
2022/03/02 02:57:57;;;;;;;;;;;-0.80;99.90;;;;;;5073551;28;19929;-69
2022/03/02 03:00:26;;;;;;;;;;;-0.80;99.90;;;;;;5070436;28;20072;-69
2022/03/02 03:02:54;;;;;;;;;;;-0.80;99.90;;;;;;5085414;28;19934;-69
2022/03/02 03:05:23;;;;;;;;;;;-0.80;99.90;;;;;;5071099;28;19923;-69
2022/03/02 03:07:50;;;;;;;;;;;-0.70;99.90;;;;;;5070800;28;20042;-69
2022/03/02 03:10:17;;;;;;;;;;;-0.70;99.90;;;;;;5084910;28;19928;-69
2022/03/02 03:12:45;;;;;;;;;;;-0.80;99.90;;;;;;5070995;28;19964;-69
2022/03/02 03:15:12;;;;;;;;;;;-0.80;99.90;;;;;;5071387;28;20019;-69
2022/03/02 03:17:39;;;;;;;;;;;-0.90;99.90;;;;;;5089211;28;19931;-69
2022/03/02 03:20:09;;;;;;;;;;;-0.90;99.90;;;;;;5079299;28;19928;-68
2022/03/02 03:22:36;;;;;;;;;;;-0.90;99.90;;;;;;5070604;28;19930;-69
2022/03/02 03:25:04;;;;;;;;;;;-0.90;99.90;;;;;;5077639;28;19955;-69
2022/03/02 03:27:30;;;;;;;;;;;-0.90;99.90;;;;;;5078774;28;20010;-69
2022/03/02 03:29:57;;;;;;;;;;;-0.90;99.90;;;;;;5079698;28;19924;-69
2022/03/02 03:32:23;;;;;;;;;;;-1.00;99.90;;;;;;5076666;28;19931;-69
2022/03/02 03:34:53;;;;;;;;;;;-0.90;99.90;;;;;;5084600;28;19939;-69
2022/03/02 03:37:20;;;;;;;;;;;-0.90;99.90;;;;;;5070216;28;20403;-69
2022/03/02 03:39:46;;;;;;;;;;;-0.90;99.90;;;;;;5070620;28;20481;-69
2022/03/02 03:42:16;;;;;;;;;;;-0.80;99.90;;;;;;5070617;28;20301;-69
2022/03/02 03:44:43;;;;;;;;;;;-0.80;99.90;;;;;;5070067;28;19924;-69
2022/03/02 03:47:10;;;;;;;;;;;-0.70;99.90;;;;;;5069272;28;20023;-69
2022/03/02 03:49:37;;;;;;;;;;;-0.60;99.90;;;;;;5069862;28;20317;-69
2022/03/02 03:52:04;;;;;;;;;;;-0.60;99.90;;;;;;5085430;28;19930;-69
2022/03/02 03:54:30;;;;;;;;;;;-0.60;99.90;;;;;;5074007;28;19924;-69
2022/03/02 03:56:57;;;;;;;;;;;-0.60;99.90;;;;;;5074496;28;19960;-69
2022/03/02 03:59:24;;;;;;;;;;;-0.60;99.90;;;;;;5082798;28;19971;-69
2022/03/02 04:01:50;;;;;;;;;;;-0.60;99.90;;;;;;5080128;28;19947;-69
2022/03/02 04:04:17;;;;;;;;;;;-0.50;99.90;;;;;;5074871;28;19925;-69
2022/03/02 04:06:47;;;;;;;;;;;-0.50;99.90;;;;;;5080594;28;19928;-69
2022/03/02 04:09:13;;;;;;;;;;;-0.50;99.90;;;;;;5088631;28;19924;-69
2022/03/02 04:11:40;;;;;;;;;;;-0.50;99.90;;;;;;5086200;28;20015;-69
2022/03/02 04:14:09;;;;;;;;;;;-0.50;99.90;;;;;;5077319;28;19925;-69
2022/03/02 04:16:36;;;;;;;;;;;-0.50;99.90;;;;;;5082703;28;19931;-69
2022/03/02 04:19:04;;;;;;;;;;;-0.50;99.90;;;;;;5083295;28;19928;-69
2022/03/02 04:21:31;;;;;;;;;;;-0.40;99.90;;;;;;5086035;28;19924;-69
2022/03/02 04:23:58;;;;;;;;;;;-0.40;99.90;;;;;;5080906;28;22466;-69
2022/03/02 04:26:24;;;;;;;;;;;-0.40;99.90;;;;;;5073809;28;19931;-69
2022/03/02 04:28:51;;;;;;;;;;;-0.40;99.90;;;;;;5081789;28;19960;-69
2022/03/02 04:31:20;;;;;;;;;;;-0.30;99.90;;;;;;5073874;28;19934;-69
2022/03/02 04:33:47;;;;;;;;;;;-0.30;99.90;;;;;;5076487;28;20018;-69
2022/03/02 04:36:14;;;;;;;;;;;-0.30;99.90;;;;;;5073453;28;19924;-69
2022/03/02 04:38:41;;;;;;;;;;;-0.30;99.90;;;;;;5086748;28;20394;-69
2022/03/02 04:41:08;;;;;;;;;;;-0.30;99.90;;;;;;5081675;28;19955;-69
2022/03/02 04:43:34;;;;;;;;;;;-0.30;99.90;;;;;;5073667;28;20023;-70
2022/03/02 04:46:01;;;;;;;;;;;-0.30;99.90;;;;;;5073472;28;20354;-69
2022/03/02 04:48:28;;;;;;;;;;;-0.30;99.90;;;;;;5073109;28;19934;-69
2022/03/02 04:50:55;;;;;;;;;;;-0.30;99.90;;;;;;5072941;28;19924;-69
2022/03/02 04:53:23;;;;;;;;;;;-0.30;99.90;;;;;;5073548;28;19939;-69
2022/03/02 04:55:53;;;;;;;;;;;-0.20;99.90;;;;;;5073424;28;20003;-69
2022/03/02 04:58:19;;;;;;;;;;;-0.20;99.90;;;;;;5088312;28;20382;-69
2022/03/02 05:00:46;;;;;;;;;;;-0.20;99.90;;;;;;5078438;28;20007;-69
2022/03/02 05:03:14;;;;;;;;;;;-0.10;99.90;;;;;;5080334;28;20363;-69
2022/03/02 05:05:41;;;;;;;;;;;-0.10;99.90;;;;;;5088099;28;20003;-69
2022/03/02 05:08:08;;;;;;;;;;;-0.10;99.90;;;;;;5087530;28;20275;-69
2022/03/02 05:10:37;;;;;;;;;;;-0.10;99.90;;;;;;5080445;28;19931;-69
2022/03/02 05:13:04;;;;;;;;;;;-0.10;99.90;;;;;;5080892;28;20371;-69
2022/03/02 05:15:31;;;;;;;;;;;-0.20;99.90;;;;;;5073125;28;19931;-69
2022/03/02 05:17:58;;;;;;;;;;;-0.20;99.90;;;;;;5076811;28;19995;-69
2022/03/02 05:20:25;;;;;;;;;;;-0.20;99.90;;;;;;5082022;28;20001;-68
2022/03/02 05:22:52;;;;;;;;;;;-0.20;99.90;;;;;;5074100;28;20014;-69
2022/03/02 05:25:19;;;;;;;;;;;-0.20;99.90;;;;;;5080069;28;20389;-68
2022/03/02 05:27:46;;;;;;;;;;;-0.30;99.90;;;;;;5073584;28;20355;-69
2022/03/02 05:30:16;;;;;;;;;;;-0.30;99.90;;;;;;5072885;28;20440;-69
2022/03/02 05:32:43;;;;;;;;;;;-0.30;99.90;;;;;;5072655;28;20619;-69
2022/03/02 05:35:09;;;;;;;;;;;-0.30;99.90;;;;;;5080205;28;19960;-69
2022/03/02 05:37:44;;;;;;;;;;;-0.20;99.90;;;;;;5072621;28;19931;-69
2022/03/02 05:40:12;;;;;;;;;;;-0.20;99.90;;;;;;5080313;28;20047;-69
2022/03/02 05:42:39;;;;;;;;;;;-0.20;99.90;;;;;;5072759;28;20003;-69
2022/03/02 05:45:09;;;;;;;;;;;-0.20;99.90;;;;;;5072803;28;20188;-69
2022/03/02 05:47:36;;;;;;;;;;;-0.10;99.90;;;;;;5072260;28;19924;-69
2022/03/02 05:50:03;;;;;;;;;;;-0.10;99.90;;;;;;5086085;28;20016;-69
2022/03/02 05:52:33;;;;;;;;;;;-0.10;99.90;;;;;;5071790;28;19960;-69
2022/03/02 05:55:03;;;;;;;;;;;0.00;99.90;;;;;;5086946;28;19924;-69
2022/03/02 05:57:29;;;;;;;;;;;0.00;99.90;;;;;;5088857;28;20030;-69
2022/03/02 05:59:56;;;;;;;;;;;0.10;99.90;;;;;;5089995;28;19931;-69
2022/03/02 06:02:23;;;;;;;;;;;0.20;99.90;;;;;;5074906;28;19993;-69
2022/03/02 06:04:49;;;;;;;;;;;0.20;99.90;;;;;;5070472;28;19925;-69
2022/03/02 06:07:16;;;;;;;;;;;0.20;99.90;;;;;;5073841;28;20085;-69
2022/03/02 06:09:44;;;;;;;;;;;0.30;99.90;;;;;;5081446;28;20272;-69
2022/03/02 06:12:11;;;;;;;;;;;0.30;99.90;;;;;;5072976;28;20085;-68
2022/03/02 06:14:38;;;;;;;;;;;0.30;99.90;;;;;;5086577;28;19928;-68
2022/03/02 06:17:05;;;;;;;;;;;0.30;99.90;;;;;;5078137;28;20011;-69
2022/03/02 06:19:33;;;;;;;;;;;0.30;99.90;;;;;;5072983;28;20307;-69
2022/03/02 06:22:02;;;;;;;;;;;0.30;99.90;;;;;;5077520;28;19963;-69
2022/03/02 06:24:29;;;;;;;;;;;0.30;99.90;;;;;;5090427;28;20439;-68
2022/03/02 06:26:56;;;;;;;;;;;0.30;99.90;;;;;;5074938;28;19928;-69
2022/03/02 06:29:23;;;;;;;;;;;0.40;99.90;;;;;;5081709;28;19930;-69
2022/03/02 06:31:50;;;;;;;;;;;0.40;99.90;;;;;;5080202;28;19930;-69
2022/03/02 06:34:19;;;;;;;;;;;0.40;99.90;;;;;;5080755;28;20019;-69
2022/03/02 06:36:49;;;;;;;;;;;0.50;99.90;;;;;;5090239;28;20015;-69
2022/03/02 06:39:17;;;;;;;;;;;0.50;99.90;;;;;;5073714;28;19970;-69
2022/03/02 06:41:43;;;;;;;;;;;0.50;99.90;;;;;;5078168;28;19978;-69
2022/03/02 06:44:18;;;;;;;;;;;0.50;99.90;;;;;;5070972;28;19935;-69
2022/03/02 06:47:05;;;;;;;;;;;0.60;99.90;;;;;;5081137;28;20012;-70
2022/03/02 06:49:44;;;;;;;;;;;0.60;99.90;;;;;;5073776;28;19929;-69
2022/03/02 06:52:12;;;;;;;;;;;0.70;99.90;;;;;;5083433;28;19924;-69
2022/03/02 06:54:42;;;;;;;;;;;0.70;99.90;;;;;;5075782;28;19936;-71
2022/03/02 06:57:09;;;;;;;;;;;0.80;99.90;;;;;;5089689;28;19968;-69
2022/03/02 06:59:37;;;;;;;;;;;0.80;99.90;;;;;;5086927;28;20024;-69
2022/03/02 07:02:08;;;;;;;;;;;0.80;99.90;;;;;;5083201;28;20367;-69
2022/03/02 07:04:39;;;;;;;;;;;0.90;99.90;;;;;;5082599;28;19931;-69
2022/03/02 07:07:06;;;;;;;;;;;1.00;99.90;;;;;;5078421;28;19987;-69
2022/03/02 07:09:34;;;;;;;;;;;1.10;99.90;;;;;;5070640;28;20347;-69
2022/03/02 07:12:02;;;;;;;;;;;1.20;99.90;;;;;;5070600;28;19931;-68
2022/03/02 07:14:29;;;;;;;;;;;1.20;99.90;;;;;;5077940;28;19932;-69
2022/03/02 07:16:57;;;;;;;;;;;1.30;99.90;;;;;;5074010;28;19951;-69
2022/03/02 07:19:25;;;;;;;;;;;1.40;99.90;;;;;;5081163;28;19924;-69
2022/03/02 07:21:55;;;;;;;;;;;1.50;99.90;;;;;;5075486;28;20012;-68
2022/03/02 07:24:28;;;;;;;;;;;1.70;99.90;;;;;;5070072;28;19930;-68
2022/03/02 07:26:56;;;;;;;;;;;1.80;99.90;;;;;;5089182;28;20007;-69
2022/03/02 07:29:26;;;;;;;;;;;1.90;99.90;;;;;;5076663;28;20389;-69
2022/03/02 07:31:56;;;;;;;;;;;1.90;99.90;;;;;;5086777;28;19924;-69
2022/03/02 07:34:24;;;;;;;;;;;2.00;99.90;;;;;;5091443;28;19924;-69
2022/03/02 07:36:57;;;;;;;;;;;2.10;99.90;;;;;;5093130;28;19978;-68
2022/03/02 07:39:25;;;;;;;;;;;2.30;99.90;;;;;;5083832;28;19924;-68
2022/03/02 07:41:52;;;;;;;;;;;2.40;99.90;;;;;;5074757;28;20518;-69
2022/03/02 07:44:19;;;;;;;;;;;2.50;99.90;;;;;;5077840;28;20305;-68
2022/03/02 07:46:45;;;;;;;;;;;2.70;99.90;;;;;;5085828;28;20012;-68
2022/03/02 07:49:13;;;;;;;;;;;2.70;99.90;;;;;;5074264;28;19955;-69
2022/03/02 07:51:40;;;;;;;;;;;2.70;99.90;;;;;;5075097;28;19929;-68
2022/03/02 07:54:07;;;;;;;;;;;2.80;99.90;;;;;;5073843;28;20055;-68
2022/03/02 07:56:37;;;;;;;;;;;2.80;99.90;;;;;;5074722;28;19946;-68
2022/03/02 07:59:04;;;;;;;;;;;2.80;99.90;;;;;;5088153;28;19932;-68
2022/03/02 08:01:35;;;;;;;;;;;2.80;99.90;;;;;;5076902;28;20047;-68
2022/03/02 08:04:04;;;;;;;;;;;3.00;99.90;;;;;;5089027;28;20386;-68
2022/03/02 08:06:33;;;;;;;;;;;3.00;99.90;;;;;;5075349;28;19947;-69
2022/03/02 08:09:00;;;;;;;;;;;3.10;99.90;;;;;;5088733;28;19928;-68
2022/03/02 08:11:29;;;;;;;;;;;3.20;99.90;;;;;;5092993;28;19924;-68
2022/03/02 08:13:56;;;;;;;;;;;3.30;99.90;;;;;;5093528;28;19924;-68
2022/03/02 08:16:22;;;;;;;;;;;3.40;99.90;;;;;;5079439;28;19924;-69
2022/03/02 08:18:49;;;;;;;;;;;3.40;99.90;;;;;;5074077;28;20011;-68
2022/03/02 08:21:18;;;;;;;;;;;3.50;99.90;;;;;;5074393;28;20355;-68
2022/03/02 08:23:47;;;;;;;;;;;3.50;99.90;;;;;;5075359;28;19928;-69
2022/03/02 08:26:17;;;;;;;;;;;3.60;99.90;;;;;;5093075;28;20442;-69
2022/03/02 08:28:45;;;;;;;;;;;3.70;99.90;;;;;;5092223;28;19962;-68
2022/03/02 08:31:12;;;;;;;;;;;3.80;99.90;;;;;;5091213;28;20003;-68
2022/03/02 08:33:40;;;;;;;;;;;3.90;99.90;;;;;;5093533;28;20032;-68
2022/03/02 08:36:09;;;;;;;;;;;4.00;99.90;;;;;;5091266;28;19970;-68
2022/03/02 08:38:40;;;;;;;;;;;4.20;99.90;;;;;;5091201;28;19947;-68
2022/03/02 08:41:07;;;;;;;;;;;4.40;99.90;;;;;;5075990;28;19977;-68
2022/03/02 08:43:37;;;;;;;;;;;4.50;99.90;;;;;;5091981;28;19998;-69
2022/03/02 08:46:04;;;;;;;;;;;4.70;99.90;;;;;;5091171;28;20019;-69
2022/03/02 08:48:31;;;;;;;;;;;4.80;99.90;;;;;;5072955;28;19924;-69
2022/03/02 08:50:59;;;;;;;;;;;4.90;99.90;;;;;;5089127;28;19955;-69
2022/03/02 08:53:26;;;;;;;;;;;5.00;99.90;;;;;;5083660;28;19994;-69
2022/03/02 08:55:53;;;;;;;;;;;4.90;99.90;;;;;;5078065;28;19968;-69
2022/03/02 08:58:20;;;;;;;;;;;4.90;99.90;;;;;;5073978;28;19929;-69
2022/03/02 09:00:48;;;;;;;;;;;4.60;99.90;;;;;;5081261;28;20266;-69
2022/03/02 09:03:15;;;;;;;;;;;4.70;99.90;;;;;;5082397;28;19967;-69
2022/03/02 09:05:42;;;;;;;;;;;4.70;99.90;;;;;;5090307;28;19978;-68
2022/03/02 09:08:09;;;;;;;;;;;4.70;99.90;;;;;;5076969;28;20418;-68
2022/03/02 09:10:36;;;;;;;;;;;4.60;99.90;;;;;;5073589;28;19925;-70
2022/03/02 09:13:03;;;;;;;;;;;4.70;99.90;;;;;;5073642;28;19924;-68
2022/03/02 09:15:30;;;;;;;;;;;4.60;99.90;;;;;;5072287;28;20023;-69
2022/03/02 09:17:56;;;;;;;;;;;4.60;99.90;;;;;;5072692;28;19924;-69
2022/03/02 09:20:23;;;;;;;;;;;4.50;99.90;;;;;;5081088;28;19942;-69
2022/03/02 09:22:51;;;;;;;;;;;4.30;99.90;;;;;;5082431;28;19963;-69
2022/03/02 09:25:18;;;;;;;;;;;4.20;99.90;;;;;;5087675;28;20405;-69
2022/03/02 09:27:46;;;;;;;;;;;4.40;99.90;;;;;;5072691;28;19924;-69
2022/03/02 09:30:15;;;;;;;;;;;4.30;99.90;;;;;;5080786;28;20007;-69
2022/03/02 09:32:42;;;;;;;;;;;4.20;99.90;;;;;;5087292;28;19959;-69
2022/03/02 09:35:13;;;;;;;;;;;4.10;99.90;;;;;;5079572;28;19924;-69
2022/03/02 09:37:41;;;;;;;;;;;4.20;99.90;;;;;;5080871;28;20789;-69
2022/03/02 09:40:10;;;;;;;;;;;4.10;99.90;;;;;;5081217;28;20019;-68
2022/03/02 09:42:45;;;;;;;;;;;4.00;99.90;;;;;;5086254;28;19946;-69
2022/03/02 09:45:12;;;;;;;;;;;4.00;99.90;;;;;;5072731;28;20007;-69
2022/03/02 09:47:43;;;;;;;;;;;4.00;99.90;;;;;;5072263;28;19950;-68
2022/03/02 09:50:12;;;;;;;;;;;3.90;99.90;;;;;;5087608;28;20409;-69
2022/03/02 09:52:41;;;;;;;;;;;4.00;99.90;;;;;;5076504;28;19978;-69
2022/03/02 09:55:08;;;;;;;;;;;4.00;99.90;;;;;;5091383;28;20316;-69
2022/03/02 09:57:40;;;;;;;;;;;4.10;99.90;;;;;;5077168;28;19968;-69
2022/03/02 10:00:08;;;;;;;;;;;4.20;99.90;;;;;;5079576;28;19925;-69
2022/03/02 10:02:35;;;;;;;;;;;4.30;99.90;;;;;;5071333;28;20362;-69
2022/03/02 10:05:05;;;;;;;;;;;4.30;99.90;;;;;;5076593;28;19924;-69
2022/03/02 10:07:35;;;;;;;;;;;4.40;99.90;;;;;;5089221;28;19924;-69
2022/03/02 10:10:01;;;;;;;;;;;4.40;99.90;;;;;;5076107;28;20007;-69
2022/03/02 10:12:30;;;;;;;;;;;4.50;99.90;;;;;;5084971;28;19924;-69
2022/03/02 10:14:58;;;;;;;;;;;4.60;99.90;;;;;;5089048;28;19977;-69
2022/03/02 10:17:30;;;;;;;;;;;4.70;99.90;;;;;;5086456;28;19933;-69
2022/03/02 10:20:00;;;;;;;;;;;4.80;99.90;;;;;;5077733;28;19924;-69
2022/03/02 10:22:27;;;;;;;;;;;5.10;99.90;;;;;;5086979;28;20010;-69
2022/03/02 10:25:00;;;;;;;;;;;5.30;99.90;;;;;;5089761;28;19929;-69
2022/03/02 10:27:43;;;;;;;;;;;5.40;99.90;;;;;;5072173;28;19985;-69
2022/03/02 10:30:10;;;;;;;;;;;5.60;99.90;;;;;;5090194;28;20022;-69
2022/03/02 10:32:40;;;;;;;;;;;5.80;99.90;;;;;;5088550;28;19976;-69
2022/03/02 10:35:08;;;;;;;;;;;6.00;99.90;;;;;;5083790;28;19924;-69
2022/03/02 10:37:36;;;;;;;;;;;5.90;99.90;;;;;;5080917;28;19998;-69
2022/03/02 10:40:20;;;;;;;;;;;6.00;99.90;;;;;;5083868;28;20008;-69
2022/03/02 10:43:01;;;;;;;;;;;5.80;99.90;;;;;;5085027;28;19931;-69
2022/03/02 10:45:39;;;;;;;;;;;5.50;99.90;;;;;;5070902;28;19947;-69
2022/03/02 10:48:12;;;;;;;;;;;5.20;99.90;;;;;;5070261;28;20383;-69
2022/03/02 10:50:40;;;;;;;;;;;5.10;99.90;;;;;;5079063;28;19924;-69
2022/03/02 10:53:15;;;;;;;;;;;5.10;99.90;;;;;;5071835;28;19954;-69
2022/03/02 10:55:44;;;;;;;;;;;4.90;99.90;;;;;;5079093;28;19977;-69
2022/03/02 10:58:14;;;;;;;;;;;4.90;99.90;;;;;;5088686;28;19928;-69
2022/03/02 11:00:41;;;;;;;;;;;5.00;99.90;;;;;;5070129;28;19924;-69
2022/03/02 11:03:08;;;;;;;;;;;5.20;99.90;;;;;;5070115;28;19946;-69
2022/03/02 11:05:35;;;;;;;;;;;5.30;99.90;;;;;;5081616;28;19931;-70
2022/03/02 11:08:03;;;;;;;;;;;5.30;99.90;;;;;;5072495;28;20027;-70
2022/03/02 11:10:33;;;;;;;;;;;5.20;99.90;;;;;;5085018;28;20014;-69
2022/03/02 11:13:02;;;;;;;;;;;5.30;99.90;;;;;;5084545;28;19935;-69
2022/03/02 11:15:43;;;;;;;;;;;5.30;99.90;;;;;;5078890;28;19970;-69
2022/03/02 11:18:16;;;;;;;;;;;5.60;99.90;;;;;;5084374;28;19989;-69
2022/03/02 11:20:59;;;;;;;;;;;5.70;99.90;;;;;;5070501;28;19928;-69
2022/03/02 11:23:26;;;;;;;;;;;5.70;99.90;;;;;;5077860;28;20023;-69
2022/03/02 11:25:54;;;;;;;;;;;5.70;99.90;;;;;;5069122;28;19924;-69
2022/03/02 11:28:22;;;;;;;;;;;5.60;99.90;;;;;;5069914;28;20419;-69
2022/03/02 11:30:53;;;;;;;;;;;5.60;99.90;;;;;;5079200;28;19999;-69
2022/03/02 11:33:29;;;;;;;;;;;5.60;99.90;;;;;;5071418;28;20407;-69
2022/03/02 11:36:19;;;;;;;;;;;5.40;99.90;;;;;;5086847;28;20461;-69
2022/03/02 11:38:51;;;;;;;;;;;5.50;99.90;;;;;;5075872;28;20015;-69
2022/03/02 11:41:18;;;;;;;;;;;5.60;99.90;;;;;;5087299;28;20023;-69
2022/03/02 11:43:45;;;;;;;;;;;5.80;99.90;;;;;;5078054;28;19924;-69
2022/03/02 11:46:12;;;;;;;;;;;6.30;99.90;;;;;;5070218;28;19929;-69
2022/03/02 11:48:40;;;;;;;;;;;7.70;99.90;;;;;;5074721;28;20382;-67
2022/03/02 11:51:14;;;;;;;;;;;9.00;98.80;;;;;;5080518;28;19967;-68
2022/03/02 11:53:43;;;;;;;;;;;9.60;97.60;;;;;;5070415;28;20361;-68
2022/03/02 11:56:12;;;;;;;;;;;10.00;96.60;;;;;;5071192;28;20022;-68
2022/03/02 11:58:57;;;;;;;;;;;10.80;96.50;;;;;;5084371;28;19924;-68
2022/03/02 12:01:44;;;;;;;;;;;10.80;96.00;;;;;;5070874;28;19925;-69
2022/03/02 12:04:27;;;;;;;;;;;11.70;95.90;;;;;;5083861;28;19924;-69
2022/03/02 12:06:55;;;;;;;;;;;12.20;94.70;;;;;;5074015;28;19928;-68
2022/03/02 12:09:27;;;;;;;;;;;12.50;94.60;;;;;;5079612;28;19924;-67
2022/03/02 12:12:08;;;;;;;;;;;12.40;94.40;;;;;;5077875;28;19924;-68
2022/03/02 12:14:42;;;;;;;;;;;13.30;94.10;;;;;;5072152;28;19925;-67
2022/03/02 12:17:12;;;;;;;;;;;13.90;92.80;;;;;;5085449;28;20303;-67
2022/03/02 12:19:39;;;;;;;;;;;13.50;91.90;;;;;;5079809;28;20018;-67
2022/03/02 12:22:06;;;;;;;;;;;13.10;92.50;;;;;;5082632;28;20003;-67
2022/03/02 12:24:34;;;;;;;;;;;13.40;92.20;;;;;;5092369;28;20066;-67
2022/03/02 12:27:03;;;;;;;;;;;13.00;92.00;;;;;;5082780;28;19934;-67
2022/03/02 12:29:31;;;;;;;;;;;13.40;92.50;;;;;;5084798;28;19924;-67
2022/03/02 12:32:04;;;;;;;;;;;13.00;92.00;;;;;;5079805;28;19925;-67
2022/03/02 12:34:38;;;;;;;;;;;12.70;91.80;;;;;;5073451;28;20028;-67
2022/03/02 12:37:06;;;;;;;;;;;11.90;92.20;;;;;;5077863;28;19924;-67
2022/03/02 12:39:33;;;;;;;;;;;12.30;93.10;;;;;;5090828;28;19931;-67
2022/03/02 12:42:02;;;;;;;;;;;12.10;92.50;;;;;;5088628;28;19931;-67
2022/03/02 12:44:29;;;;;;;;;;;12.90;92.20;;;;;;5087905;28;20019;-67
2022/03/02 12:47:00;;;;;;;;;;;13.20;92.00;;;;;;5073381;28;20271;-67
2022/03/02 12:49:27;;;;;;;;;;;13.40;91.60;;;;;;5087562;28;19934;-68
2022/03/02 12:51:55;;;;;;;;;;;13.30;92.20;;;;;;5074038;28;20035;-68
2022/03/02 12:54:22;;;;;;;;;;;14.20;92.50;;;;;;5073729;28;20407;-68
2022/03/02 12:56:49;;;;;;;;;;;14.50;91.90;;;;;;5072431;28;19936;-67
2022/03/02 12:59:17;;;;;;;;;;;14.30;91.10;;;;;;5073961;28;20019;-68
2022/03/02 13:01:45;;;;;;;;;;;14.00;90.90;;;;;;5087835;28;19967;-67
2022/03/02 13:04:13;;;;;;;;;;;13.50;91.00;;;;;;5080101;28;19925;-67
2022/03/02 13:06:42;;;;;;;;;;;13.50;91.30;;;;;;5087200;28;19928;-67
2022/03/02 13:09:13;;;;;;;;;;;13.10;91.00;;;;;;5072870;28;20350;-67
2022/03/02 13:11:40;;;;;;;;;;;13.40;91.30;;;;;;5073713;28;19951;-67
2022/03/02 13:14:27;;;;;;;;;;;13.40;90.80;;;;;;5091406;28;19924;-67
2022/03/02 13:16:54;;;;;;;;;;;12.90;91.10;;;;;;5070100;28;19928;-67
2022/03/02 13:19:26;;;;;;;;;;;13.00;91.20;;;;;;5073027;28;19925;-67
2022/03/02 13:22:02;;;;;;;;;;;12.80;90.90;;;;;;5072750;28;19932;-68
2022/03/02 13:24:43;;;;;;;;;;;12.80;90.10;;;;;;5072899;28;19925;-67
2022/03/02 13:27:15;;;;;;;;;;;13.20;90.10;;;;;;5072248;28;19925;-67
2022/03/02 13:29:50;;;;;;;;;;;13.60;90.50;;;;;;5086649;28;19963;-67
2022/03/02 13:32:18;;;;;;;;;;;13.70;90.00;;;;;;5089549;28;20003;-67
2022/03/02 13:35:06;;;;;;;;;;;14.10;89.70;;;;;;5089499;28;19970;-67
2022/03/02 13:37:51;;;;;;;;;;;14.90;89.40;;;;;;5079506;28;20512;-67
2022/03/02 13:40:34;;;;;;;;;;;15.30;88.00;;;;;;5077884;28;20383;-68
2022/03/02 13:43:06;;;;;;;;;;;14.70;88.50;;;;;;5075943;28;20015;-68
2022/03/02 13:45:34;;;;;;;;;;;15.30;87.70;;;;;;5080575;28;19971;-67
2022/03/02 13:48:21;;;;;;;;;;;15.70;87.00;;;;;;5078150;28;19973;-68
2022/03/02 13:50:56;;;;;;;;;;;15.70;85.80;;;;;;5083079;28;19932;-68
2022/03/02 13:53:44;;;;;;;;;;;15.80;83.20;;;;;;5086916;28;19931;-68
2022/03/02 13:56:12;;;;;;;;;;;15.40;81.90;;;;;;5087513;28;19924;-68
2022/03/02 13:58:40;;;;;;;;;;;14.30;83.80;;;;;;5090272;28;20015;-67
2022/03/02 14:01:13;;;;;;;;;;;13.90;84.10;;;;;;5080390;28;19963;-67
2022/03/02 14:03:49;;;;;;;;;;;13.50;84.80;;;;;;5090626;28;19974;-67
2022/03/02 14:06:16;;;;;;;;;;;13.30;84.20;;;;;;5075998;28;19928;-67
2022/03/02 14:08:43;;;;;;;;;;;13.20;85.30;;;;;;5071836;28;20007;-67
2022/03/02 14:11:26;;;;;;;;;;;13.80;85.40;;;;;;5072234;28;19967;-67
2022/03/02 14:13:53;;;;;;;;;;;14.10;84.80;;;;;;5080123;28;20449;-68
2022/03/02 14:16:20;;;;;;;;;;;14.60;85.80;;;;;;5071336;28;19964;-68
2022/03/02 14:18:47;;;;;;;;;;;15.40;86.70;;;;;;5071773;28;19956;-67
2022/03/02 14:21:15;;;;;;;;;;;15.40;83.20;;;;;;5076275;28;20019;-67
2022/03/02 14:23:49;;;;;;;;;;;14.40;83.20;;;;;;5080881;28;19931;-67
2022/03/02 14:26:16;;;;;;;;;;;14.20;83.70;;;;;;5075917;28;19978;-68
2022/03/02 14:28:43;;;;;;;;;;;14.20;83.60;;;;;;5084584;28;20019;-68
2022/03/02 14:31:09;;;;;;;;;;;14.50;83.60;;;;;;5079019;28;19924;-68
2022/03/02 14:33:36;;;;;;;;;;;14.80;84.10;;;;;;5086848;28;19928;-68